Terminal Aerodrome Forecast
Issued by NWS

Home | Current Version | Previous Version | Text Only | Print | Product List | Glossary On
Versions: 1 2 3 4 5 6 7 8 9 10 11 12 13 14 15 16 17 18 19 20 21 22 23 24 25 26 27 28 29 30 31 32 33 34 35 36 37 38 39 40 41 42 43 44
000
FTUS43 KLOT 240800 AAA
TAFORD
TAF AMD
KORD 240802Z 2408/2512 25010KT 5SM -RA BR OVC005
     FM240900 25011KT 3SM -RA BR OVC004
      TEMPO 2409/2411 1 1/2SM RA BR OVC003
     FM241400 27015G22KT 3SM -RA BR OVC006
     FM241700 27020G30KT 4SM -RASN BKN007 OVC012
     FM242000 25024G33KT 3SM -SN SCT007 OVC015
     FM250200 25017G27KT 5SM -SN SCT010 OVC020
     FM250700 26012G18KT 6SM -SN OVC025=

USA.gov is the U.S. government's official web portal to all federal, state and local government web resources and services.